createdAt,value
2023-01-17T00:02:02.116Z,100.00
2023-01-17T00:04:42.789Z,100.00
2023-01-17T00:07:11.808Z,100.00
2023-01-17T00:09:41.554Z,100.00
2023-01-17T00:12:02.601Z,100.00
2023-01-17T00:14:31.639Z,100.00
2023-01-17T00:17:01.812Z,100.00
2023-01-17T00:22:18.648Z,100.00
2023-01-17T00:24:41.623Z,100.00
2023-01-17T00:29:31.593Z,100.00
2023-01-17T00:32:01.573Z,100.00
2023-01-17T00:34:31.942Z,100.00
2023-01-17T00:39:31.543Z,100.00
2023-01-17T00:42:01.583Z,100.00
2023-01-17T00:44:41.807Z,100.00
2023-01-17T00:47:11.574Z,100.00
2023-01-17T00:49:41.522Z,100.00
2023-01-17T00:52:11.547Z,100.00
2023-01-17T00:54:41.736Z,100.00
2023-01-17T00:57:12.581Z,100.00
2023-01-17T00:59:42.096Z,100.00
2023-01-17T01:02:11.607Z,100.00
2023-01-17T01:04:41.688Z,100.00
2023-01-17T01:07:11.769Z,100.00
2023-01-17T01:09:41.676Z,100.00
2023-01-17T01:12:11.554Z,100.00
2023-01-17T01:14:41.739Z,100.00
2023-01-17T01:17:11.769Z,100.00
2023-01-17T01:22:12.101Z,100.00
2023-01-17T01:24:41.528Z,100.00
2023-01-17T01:27:12.026Z,100.00
2023-01-17T01:29:41.689Z,100.00
2023-01-17T01:32:11.643Z,100.00
2023-01-17T01:34:32.161Z,100.00
2023-01-17T01:37:02.027Z,100.00
2023-01-17T01:42:01.734Z,100.00
2023-01-17T01:44:43.871Z,100.00
2023-01-17T01:47:01.975Z,100.00
2023-01-17T01:49:31.750Z,100.00
2023-01-17T01:52:04.974Z,100.00
2023-01-17T01:54:35.886Z,100.00
2023-01-17T01:57:04.940Z,100.00
2023-01-17T01:59:34.362Z,100.00
2023-01-17T02:02:01.694Z,100.00
2023-01-17T02:04:31.859Z,100.00
2023-01-17T02:07:07.173Z,100.00
2023-01-17T02:09:31.874Z,100.00
2023-01-17T02:12:02.493Z,100.00
2023-01-17T02:14:31.859Z,100.00
2023-01-17T02:17:14.791Z,100.00
2023-01-17T02:19:51.741Z,100.00
2023-01-17T02:22:21.450Z,100.00
2023-01-17T02:24:50.678Z,100.00
2023-01-17T02:27:06.736Z,100.00
2023-01-17T02:29:51.629Z,100.00
2023-01-17T02:32:07.315Z,100.00
2023-01-17T02:34:42.617Z,100.00
2023-01-17T02:37:10.170Z,100.00
2023-01-17T02:39:36.968Z,100.00
2023-01-17T02:42:07.207Z,100.00
2023-01-17T02:44:39.889Z,100.00
2023-01-17T02:47:20.451Z,100.00
2023-01-17T02:49:31.707Z,100.00
2023-01-17T02:52:19.973Z,100.00
2023-01-17T02:54:45.453Z,100.00
2023-01-17T02:57:20.579Z,100.00
2023-01-17T02:59:40.015Z,100.00
2023-01-17T03:02:11.012Z,100.00
2023-01-17T03:04:38.751Z,100.00
2023-01-17T03:07:07.128Z,100.00
2023-01-17T03:09:32.582Z,100.00
2023-01-17T03:12:03.366Z,100.00
2023-01-17T03:14:31.751Z,100.00
2023-01-17T03:17:01.801Z,100.00
2023-01-17T03:19:32.013Z,100.00
2023-01-17T03:22:01.932Z,100.00
2023-01-17T03:27:03.127Z,100.00
2023-01-17T03:29:31.756Z,100.00
2023-01-17T03:32:01.770Z,100.00
2023-01-17T03:34:31.832Z,100.00
2023-01-17T03:37:01.701Z,100.00
2023-01-17T03:39:32.180Z,100.00
2023-01-17T03:42:01.712Z,100.00
2023-01-17T03:44:33.495Z,100.00
2023-01-17T03:47:02.057Z,100.00
2023-01-17T03:49:31.733Z,100.00
2023-01-17T03:52:01.997Z,100.00
2023-01-17T03:54:31.888Z,100.00
2023-01-17T03:57:01.707Z,100.00
2023-01-17T03:59:33.008Z,100.00
2023-01-17T04:02:02.023Z,100.00
2023-01-17T04:04:31.780Z,100.00
2023-01-17T04:07:02.016Z,100.00
2023-01-17T04:09:33.496Z,100.00
2023-01-17T04:12:03.523Z,100.00
2023-01-17T04:14:32.232Z,100.00
2023-01-17T04:17:03.121Z,100.00
2023-01-17T04:19:34.638Z,100.00
2023-01-17T04:22:02.387Z,100.00
2023-01-17T04:27:03.562Z,100.00
2023-01-17T04:29:32.151Z,100.00
2023-01-17T04:32:01.733Z,100.00
2023-01-17T04:34:32.055Z,100.00
2023-01-17T04:39:31.816Z,100.00
2023-01-17T04:42:02.358Z,100.00
2023-01-17T04:44:31.703Z,100.00
2023-01-17T04:47:02.386Z,100.00
2023-01-17T04:49:32.055Z,100.00
2023-01-17T04:52:02.126Z,100.00
2023-01-17T04:54:31.699Z,100.00
2023-01-17T04:57:01.892Z,100.00
2023-01-17T04:59:32.052Z,100.00
2023-01-17T05:02:02.067Z,100.00
2023-01-17T05:04:31.927Z,99.52
2023-01-17T05:07:01.948Z,100.00
2023-01-17T05:09:32.030Z,100.00
2023-01-17T05:12:02.255Z,100.00
2023-01-17T05:14:33.638Z,99.69
2023-01-17T05:17:02.116Z,98.87
2023-01-17T05:19:31.857Z,99.04
2023-01-17T05:22:02.859Z,98.89
2023-01-17T05:24:31.997Z,99.11
2023-01-17T05:27:05.337Z,98.78
2023-01-17T05:29:31.945Z,99.29
2023-01-17T05:32:02.110Z,98.81
2023-01-17T05:34:32.361Z,99.51
2023-01-17T05:37:01.769Z,98.96
2023-01-17T05:39:31.852Z,99.74
2023-01-17T05:42:02.015Z,99.74
2023-01-17T05:44:31.856Z,99.69
2023-01-17T05:47:01.759Z,99.58
2023-01-17T05:49:31.780Z,99.72
2023-01-17T05:52:02.013Z,99.70
2023-01-17T05:54:31.931Z,99.43
2023-01-17T05:57:01.708Z,99.31
2023-01-17T05:59:36.920Z,99.20
2023-01-17T06:02:01.924Z,99.43
2023-01-17T06:04:32.138Z,99.58
2023-01-17T06:07:01.849Z,99.55
2023-01-17T06:09:31.752Z,99.63
2023-01-17T06:14:31.739Z,99.72
2023-01-17T06:17:01.873Z,99.84
2023-01-17T06:19:32.296Z,99.94
2023-01-17T06:24:32.936Z,99.92
2023-01-17T06:27:01.744Z,99.87
2023-01-17T06:29:32.249Z,99.97
2023-01-17T06:32:02.181Z,99.92
2023-01-17T06:34:31.858Z,100.00
2023-01-17T06:37:01.735Z,99.82
2023-01-17T06:39:31.786Z,99.87
2023-01-17T06:42:02.257Z,99.98
2023-01-17T06:44:31.964Z,99.91
2023-01-17T06:47:02.061Z,99.92
2023-01-17T06:49:32.187Z,99.91
2023-01-17T06:52:01.759Z,100.00
2023-01-17T06:54:32.113Z,100.00
2023-01-17T06:57:01.954Z,100.00
2023-01-17T06:59:31.729Z,100.00
2023-01-17T07:02:01.909Z,100.00
2023-01-17T07:04:34.050Z,100.00
2023-01-17T07:07:01.835Z,100.00
2023-01-17T07:09:31.985Z,100.00
2023-01-17T07:12:02.157Z,100.00
2023-01-17T07:14:31.915Z,100.00
2023-01-17T07:17:03.702Z,100.00
2023-01-17T07:19:32.107Z,100.00
2023-01-17T07:22:01.815Z,100.00
2023-01-17T07:24:33.288Z,100.00
2023-01-17T07:27:02.198Z,100.00
2023-01-17T07:29:31.902Z,100.00
2023-01-17T07:32:02.338Z,100.00
2023-01-17T07:34:31.939Z,100.00
2023-01-17T07:37:01.761Z,100.00
2023-01-17T07:39:32.229Z,100.00
2023-01-17T07:42:01.791Z,100.00
2023-01-17T07:44:31.955Z,100.00
2023-01-17T07:47:03.541Z,100.00
2023-01-17T07:49:31.788Z,100.00
2023-01-17T07:52:02.474Z,100.00
2023-01-17T07:54:32.116Z,100.00
2023-01-17T07:57:02.525Z,99.99
2023-01-17T07:59:33.574Z,99.98
2023-01-17T08:02:02.123Z,100.00
2023-01-17T08:04:34.261Z,100.00
2023-01-17T08:07:01.881Z,99.93
2023-01-17T08:09:31.840Z,99.92
2023-01-17T08:12:02.661Z,99.83
2023-01-17T08:14:31.888Z,99.77
2023-01-17T08:17:04.331Z,99.76
2023-01-17T08:22:02.076Z,99.63
2023-01-17T08:27:02.590Z,99.59
2023-01-17T08:29:31.937Z,99.59
2023-01-17T08:32:02.332Z,99.60
2023-01-17T08:37:02.046Z,99.67
2023-01-17T08:42:02.659Z,99.78
2023-01-17T08:44:31.791Z,99.99
2023-01-17T08:47:01.821Z,100.00
2023-01-17T08:49:31.846Z,100.00
2023-01-17T08:52:01.796Z,100.00
2023-01-17T08:54:32.299Z,100.00
2023-01-17T08:57:03.852Z,100.00
2023-01-17T08:59:31.946Z,100.00
2023-01-17T09:02:11.748Z,100.00
2023-01-17T09:04:31.896Z,100.00
2023-01-17T09:07:06.669Z,100.00
2023-01-17T09:09:32.328Z,100.00
2023-01-17T09:12:02.137Z,100.00
2023-01-17T09:14:31.999Z,100.00
2023-01-17T09:17:02.352Z,100.00
2023-01-17T09:19:32.352Z,100.00
2023-01-17T09:22:03.922Z,100.00
2023-01-17T09:24:32.410Z,100.00
2023-01-17T09:27:03.057Z,100.00
2023-01-17T09:29:31.974Z,100.00
2023-01-17T09:32:02.195Z,100.00
2023-01-17T09:37:02.071Z,100.00
2023-01-17T09:39:31.844Z,100.00
2023-01-17T09:42:16.633Z,100.00
2023-01-17T09:44:40.481Z,100.00
2023-01-17T09:47:11.170Z,100.00
2023-01-17T09:49:37.039Z,100.00
2023-01-17T09:52:03.696Z,100.00
2023-01-17T09:54:35.081Z,100.00
2023-01-17T09:59:45.275Z,100.00
2023-01-17T10:02:18.005Z,100.00
2023-01-17T10:04:51.640Z,100.00
2023-01-17T10:07:13.619Z,100.00
2023-01-17T10:09:47.790Z,100.00
2023-01-17T10:12:17.789Z,100.00
2023-01-17T10:14:46.563Z,100.00
2023-01-17T10:17:12.589Z,100.00
2023-01-17T10:19:49.494Z,100.00
2023-01-17T10:22:17.440Z,100.00
2023-01-17T10:27:10.005Z,100.00
2023-01-17T10:29:34.176Z,100.00
2023-01-17T10:32:02.384Z,100.00
2023-01-17T10:34:41.711Z,100.00
2023-01-17T10:37:12.181Z,100.00
2023-01-17T10:39:32.954Z,100.00
2023-01-17T10:42:12.361Z,100.00
2023-01-17T10:44:37.869Z,100.00
2023-01-17T10:47:12.123Z,100.00
2023-01-17T10:49:32.104Z,100.00
2023-01-17T10:52:11.415Z,100.00
2023-01-17T10:54:45.745Z,100.00
2023-01-17T10:57:01.978Z,100.00
2023-01-17T10:59:34.017Z,100.00
2023-01-17T11:02:06.037Z,100.00
2023-01-17T11:04:35.658Z,100.00
2023-01-17T11:07:13.426Z,100.00
2023-01-17T11:09:37.293Z,100.00
2023-01-17T11:12:01.922Z,100.00
2023-01-17T11:17:05.339Z,100.00
2023-01-17T11:22:04.414Z,100.00
2023-01-17T11:24:35.587Z,100.00
2023-01-17T11:27:04.261Z,99.76
2023-01-17T11:29:36.852Z,100.00
2023-01-17T11:32:21.656Z,98.85
2023-01-17T11:34:32.158Z,96.62
2023-01-17T11:39:31.971Z,98.38
2023-01-17T11:42:15.043Z,98.43
2023-01-17T11:44:34.008Z,97.89
2023-01-17T11:47:15.970Z,98.67
2023-01-17T11:52:07.663Z,99.00
2023-01-17T11:54:38.591Z,98.35
2023-01-17T11:57:01.919Z,98.58
2023-01-17T12:02:23.025Z,98.71
2023-01-17T12:04:37.802Z,100.00
2023-01-17T12:07:17.014Z,97.68
2023-01-17T12:09:41.709Z,100.00
2023-01-17T12:12:20.337Z,93.51
2023-01-17T12:14:43.657Z,98.38
2023-01-17T12:17:13.302Z,94.97
2023-01-17T12:19:44.972Z,95.95
2023-01-17T12:22:19.808Z,96.17
2023-01-17T12:24:48.381Z,94.40
2023-01-17T12:27:11.584Z,96.18
2023-01-17T12:29:43.087Z,92.53
2023-01-17T12:32:18.725Z,95.83
2023-01-17T12:34:39.247Z,95.96
2023-01-17T12:37:11.206Z,94.46
2023-01-17T12:39:37.670Z,93.32
2023-01-17T12:42:06.290Z,95.70
2023-01-17T12:44:44.334Z,94.18
2023-01-17T12:47:04.785Z,95.42
2023-01-17T12:49:41.898Z,94.90
2023-01-17T12:54:38.569Z,97.15
2023-01-17T12:57:13.149Z,96.08
2023-01-17T12:59:38.323Z,92.17
2023-01-17T13:02:16.292Z,90.25
2023-01-17T13:04:42.037Z,95.34
2023-01-17T13:07:12.440Z,95.42
2023-01-17T13:09:38.598Z,89.65
2023-01-17T13:12:05.469Z,89.26
2023-01-17T13:14:32.043Z,89.26
2023-01-17T13:17:08.607Z,94.88
2023-01-17T13:19:41.660Z,95.45
2023-01-17T13:22:07.686Z,94.60
2023-01-17T13:24:44.954Z,93.44
2023-01-17T13:27:17.263Z,92.91
2023-01-17T13:29:40.763Z,94.54
2023-01-17T13:32:18.435Z,97.32
2023-01-17T13:34:47.857Z,94.10
2023-01-17T13:37:18.410Z,90.84
2023-01-17T13:39:51.073Z,95.76
2023-01-17T13:42:10.878Z,94.98
2023-01-17T13:44:32.452Z,86.53
2023-01-17T13:47:04.288Z,88.15
2023-01-17T13:49:33.751Z,91.40
2023-01-17T13:54:33.191Z,87.80
2023-01-17T13:57:21.704Z,84.76
2023-01-17T13:59:32.129Z,89.64
2023-01-17T14:02:02.103Z,89.34
2023-01-17T14:04:51.979Z,89.50
2023-01-17T14:07:18.513Z,85.89
2023-01-17T14:09:40.945Z,85.30
2023-01-17T14:12:05.092Z,86.18
2023-01-17T14:14:43.984Z,88.98
2023-01-17T14:17:22.248Z,87.81
2023-01-17T14:19:35.490Z,83.48
2023-01-17T14:22:14.388Z,84.48
2023-01-17T14:24:31.928Z,88.15
2023-01-17T14:27:15.477Z,87.25
2023-01-17T14:29:47.302Z,86.13
2023-01-17T14:32:05.698Z,88.55
2023-01-17T14:34:32.896Z,87.08
2023-01-17T14:37:05.466Z,88.63
2023-01-17T14:39:42.858Z,83.87
2023-01-17T14:42:02.260Z,88.33
2023-01-17T14:44:34.132Z,87.99
2023-01-17T14:47:02.126Z,87.48
2023-01-17T14:49:31.871Z,86.58
2023-01-17T14:52:03.966Z,86.20
2023-01-17T14:54:32.502Z,86.16
2023-01-17T14:57:13.835Z,86.45
2023-01-17T14:59:31.880Z,86.61
2023-01-17T15:02:08.218Z,86.33
2023-01-17T15:04:38.081Z,86.39
2023-01-17T15:07:02.693Z,86.45
2023-01-17T15:09:36.335Z,86.39
2023-01-17T15:12:03.129Z,86.54
2023-01-17T15:14:35.246Z,86.75
2023-01-17T15:17:09.672Z,86.59
2023-01-17T15:19:40.213Z,86.55
2023-01-17T15:22:04.502Z,86.51
2023-01-17T15:24:40.197Z,86.72
2023-01-17T15:27:05.253Z,86.72
2023-01-17T15:29:33.898Z,86.73
2023-01-17T15:32:04.550Z,87.07
2023-01-17T15:34:36.063Z,87.28
2023-01-17T15:37:07.315Z,87.23
2023-01-17T15:39:34.931Z,87.33
2023-01-17T15:42:05.640Z,87.41
2023-01-17T15:44:47.517Z,87.61
2023-01-17T15:47:02.428Z,87.66
2023-01-17T15:49:31.960Z,87.95
2023-01-17T15:52:14.614Z,87.94
2023-01-17T15:54:39.439Z,88.13
2023-01-17T15:57:04.619Z,88.01
2023-01-17T15:59:43.020Z,88.17
2023-01-17T16:02:02.260Z,88.25
2023-01-17T16:04:34.340Z,88.18
2023-01-17T16:07:18.899Z,88.15
2023-01-17T16:09:42.072Z,88.38
2023-01-17T16:12:01.907Z,88.46
2023-01-17T16:14:49.637Z,88.51
2023-01-17T16:17:02.997Z,88.60
2023-01-17T16:19:33.502Z,88.55
2023-01-17T16:22:03.203Z,88.68
2023-01-17T16:24:31.920Z,88.47
2023-01-17T16:27:03.741Z,88.45
2023-01-17T16:29:32.342Z,88.50
2023-01-17T16:32:07.749Z,88.55
2023-01-17T16:34:32.056Z,88.42
2023-01-17T16:39:31.960Z,88.24
2023-01-17T16:42:02.576Z,88.05
2023-01-17T16:44:36.075Z,88.27
2023-01-17T16:47:01.920Z,88.12
2023-01-17T16:49:32.392Z,88.03
2023-01-17T16:52:02.068Z,88.18
2023-01-17T16:54:32.102Z,88.22
2023-01-17T16:57:02.423Z,88.30
2023-01-17T16:59:42.500Z,88.18
2023-01-17T17:02:04.411Z,88.26
2023-01-17T17:04:31.940Z,88.59
2023-01-17T17:07:02.461Z,88.49
2023-01-17T17:09:31.954Z,88.87
2023-01-17T17:12:04.006Z,89.03
2023-01-17T17:14:32.289Z,89.09
2023-01-17T17:17:02.100Z,88.95
2023-01-17T17:19:33.617Z,89.16
2023-01-17T17:24:32.161Z,89.22
2023-01-17T17:27:01.971Z,89.12
2023-01-17T17:32:02.877Z,89.02
2023-01-17T17:34:33.980Z,88.89
2023-01-17T17:37:03.837Z,89.09
2023-01-17T17:39:32.080Z,89.33
2023-01-17T17:42:02.090Z,89.45
2023-01-17T17:44:32.208Z,89.69
2023-01-17T17:47:03.161Z,89.75
2023-01-17T17:49:32.013Z,89.97
2023-01-17T17:52:03.688Z,89.72
2023-01-17T17:54:33.031Z,89.66
2023-01-17T17:57:02.244Z,89.10
2023-01-17T17:59:32.205Z,90.00
2023-01-17T18:02:02.052Z,90.08
2023-01-17T18:04:31.969Z,89.78
2023-01-17T18:09:32.313Z,89.98
2023-01-17T18:14:33.893Z,90.17
2023-01-17T18:17:01.985Z,90.00
2023-01-17T18:19:31.965Z,89.85
2023-01-17T18:22:03.043Z,89.85
2023-01-17T18:24:31.980Z,89.92
2023-01-17T18:27:02.243Z,89.86
2023-01-17T18:29:32.268Z,90.06
2023-01-17T18:32:01.941Z,90.15
2023-01-17T18:34:34.928Z,90.07
2023-01-17T18:37:03.080Z,90.14
2023-01-17T18:39:39.360Z,90.25
2023-01-17T18:44:31.951Z,90.20
2023-01-17T18:47:04.828Z,90.18
2023-01-17T18:49:32.895Z,90.42
2023-01-17T18:52:02.103Z,90.45
2023-01-17T18:54:32.344Z,90.35
2023-01-17T18:57:01.984Z,90.41
2023-01-17T18:59:32.327Z,90.22
2023-01-17T19:02:02.150Z,90.34
2023-01-17T19:04:33.011Z,90.32
2023-01-17T19:07:02.032Z,90.37
2023-01-17T19:09:32.012Z,90.47
2023-01-17T19:14:32.362Z,90.47
2023-01-17T19:17:01.965Z,90.44
2023-01-17T19:19:32.659Z,90.27
2023-01-17T19:22:01.976Z,90.42
2023-01-17T19:27:02.488Z,90.48
2023-01-17T19:29:32.172Z,90.61
2023-01-17T19:34:32.105Z,90.89
2023-01-17T19:37:02.019Z,90.84
2023-01-17T19:39:32.435Z,91.08
2023-01-17T19:42:02.030Z,90.97
2023-01-17T19:44:32.068Z,91.11
2023-01-17T19:47:02.067Z,91.16
2023-01-17T19:49:33.040Z,91.05
2023-01-17T19:52:02.583Z,91.16
2023-01-17T19:54:32.389Z,91.05
2023-01-17T19:57:02.026Z,90.96
2023-01-17T20:04:32.419Z,90.82
2023-01-17T20:07:02.005Z,90.73
2023-01-17T20:12:02.292Z,90.64
2023-01-17T20:17:02.805Z,91.05
2023-01-17T20:19:32.586Z,91.16
2023-01-17T20:22:02.101Z,91.20
2023-01-17T20:24:32.670Z,91.36
2023-01-17T20:27:02.341Z,91.19
2023-01-17T20:29:33.300Z,91.08
2023-01-17T20:32:02.123Z,91.16
2023-01-17T20:34:31.966Z,91.26
2023-01-17T20:37:02.318Z,91.39
2023-01-17T20:39:31.996Z,91.58
2023-01-17T20:44:33.377Z,91.95
2023-01-17T20:47:02.488Z,91.58
2023-01-17T20:49:32.166Z,91.50
2023-01-17T20:52:02.186Z,91.54
2023-01-17T20:54:32.037Z,91.87
2023-01-17T20:57:02.402Z,92.01
2023-01-17T20:59:32.330Z,92.47
2023-01-17T21:02:02.269Z,92.51
2023-01-17T21:04:32.054Z,92.32
2023-01-17T21:07:02.065Z,92.05
2023-01-17T21:09:32.529Z,92.20
2023-01-17T21:12:02.061Z,92.25
2023-01-17T21:14:32.063Z,92.24
2023-01-17T21:19:32.001Z,92.02
2023-01-17T21:22:04.658Z,91.78
2023-01-17T21:24:32.037Z,91.78
2023-01-17T21:27:02.005Z,91.70
2023-01-17T21:29:32.063Z,91.92
2023-01-17T21:32:02.016Z,92.04
2023-01-17T21:34:33.914Z,91.94
2023-01-17T21:37:02.810Z,92.20
2023-01-17T21:39:32.031Z,92.36
2023-01-17T21:42:02.156Z,92.46
2023-01-17T21:44:35.473Z,92.53
2023-01-17T21:47:02.641Z,92.87
2023-01-17T21:49:32.121Z,93.20
2023-01-17T21:52:12.107Z,93.24
2023-01-17T21:54:42.736Z,93.15
2023-01-17T21:57:11.894Z,93.17
2023-01-17T21:59:33.290Z,93.18
2023-01-17T22:02:02.120Z,93.19
2023-01-17T22:04:32.512Z,93.05
2023-01-17T22:07:02.469Z,92.89
2023-01-17T22:12:02.219Z,92.87
2023-01-17T22:17:02.059Z,92.88
2023-01-17T22:19:33.219Z,93.24
2023-01-17T22:22:02.174Z,93.26
2023-01-17T22:24:32.077Z,93.40
2023-01-17T22:27:02.242Z,93.60
2023-01-17T22:29:32.977Z,93.70
2023-01-17T22:32:02.990Z,93.53
2023-01-17T22:34:32.054Z,93.53
2023-01-17T22:37:03.825Z,93.48
2023-01-17T22:39:32.172Z,93.34
2023-01-17T22:44:32.492Z,93.28
2023-01-17T22:49:32.178Z,93.02
2023-01-17T22:52:02.152Z,93.09
2023-01-17T22:54:32.077Z,93.21
2023-01-17T22:57:02.344Z,93.32
2023-01-17T22:59:32.949Z,93.36
2023-01-17T23:02:02.238Z,93.08
2023-01-17T23:04:32.011Z,93.21
2023-01-17T23:09:32.541Z,92.95
2023-01-17T23:12:02.482Z,92.86
2023-01-17T23:14:43.879Z,92.73
2023-01-17T23:17:12.830Z,92.53
2023-01-17T23:19:34.830Z,92.38
2023-01-17T23:22:14.511Z,92.24
2023-01-17T23:24:32.175Z,92.13
2023-01-17T23:27:11.928Z,91.99
2023-01-17T23:29:32.302Z,91.96
2023-01-17T23:32:02.184Z,91.93
2023-01-17T23:34:32.029Z,92.00
2023-01-17T23:37:02.359Z,91.98
2023-01-17T23:39:32.030Z,91.96
2023-01-17T23:42:12.249Z,92.22
2023-01-17T23:44:32.180Z,92.38
2023-01-17T23:47:02.028Z,92.28
2023-01-17T23:52:05.652Z,91.93
2023-01-17T23:54:34.088Z,91.94
2023-01-17T23:57:02.706Z,91.89
2023-01-17T23:59:32.221Z,92.02
